createdAt,value
2023-04-09T00:01:08.932Z,100.00
2023-04-09T00:03:36.727Z,100.00
2023-04-09T00:06:05.593Z,100.00
2023-04-09T00:08:32.176Z,100.00
2023-04-09T00:10:59.377Z,100.00
2023-04-09T00:13:38.672Z,100.00
2023-04-09T00:16:06.403Z,100.00
2023-04-09T00:18:33.125Z,100.00
2023-04-09T00:20:59.635Z,100.00
2023-04-09T00:23:27.488Z,100.00
2023-04-09T00:25:54.009Z,100.00
2023-04-09T00:28:20.554Z,100.00
2023-04-09T00:30:47.038Z,100.00
2023-04-09T00:33:13.520Z,100.00
2023-04-09T00:35:40.075Z,100.00
2023-04-09T00:38:06.539Z,100.00
2023-04-09T00:40:34.410Z,100.00
2023-04-09T00:43:00.974Z,100.00
2023-04-09T00:45:27.658Z,100.00
2023-04-09T00:47:54.390Z,100.00
2023-04-09T00:50:21.701Z,100.00
2023-04-09T00:52:48.341Z,100.00
2023-04-09T00:55:15.558Z,100.00
2023-04-09T00:57:43.390Z,100.00
2023-04-09T01:00:10.756Z,100.00
2023-04-09T01:02:38.019Z,100.00
2023-04-09T01:05:05.392Z,100.00
2023-04-09T01:07:42.998Z,100.00
2023-04-09T01:10:20.711Z,100.00
2023-04-09T01:13:00.205Z,100.00
2023-04-09T01:15:29.691Z,100.00
2023-04-09T01:18:03.064Z,100.00
2023-04-09T01:20:35.329Z,100.00
2023-04-09T01:23:14.035Z,100.00
2023-04-09T01:25:48.734Z,100.00
2023-04-09T01:28:18.189Z,100.00
2023-04-09T01:30:48.252Z,100.00
2023-04-09T01:33:16.353Z,100.00
2023-04-09T01:35:44.949Z,100.00
2023-04-09T01:38:13.681Z,100.00
2023-04-09T01:40:41.044Z,100.00
2023-04-09T01:43:08.468Z,100.00
2023-04-09T01:45:36.291Z,100.00
2023-04-09T01:48:04.765Z,100.00
2023-04-09T01:50:32.111Z,100.00
2023-04-09T01:52:59.838Z,100.00
2023-04-09T01:55:26.294Z,100.00
2023-04-09T01:57:52.933Z,100.00
2023-04-09T02:00:19.645Z,100.00
2023-04-09T02:02:55.537Z,100.00
2023-04-09T02:05:27.708Z,100.00
2023-04-09T02:07:56.799Z,100.00
2023-04-09T02:10:26.404Z,100.00
2023-04-09T02:12:55.382Z,100.00
2023-04-09T02:15:23.008Z,100.00
2023-04-09T02:17:50.875Z,100.00
2023-04-09T02:20:17.553Z,100.00
2023-04-09T02:22:44.155Z,100.00
2023-04-09T02:25:10.703Z,100.00
2023-04-09T02:27:37.274Z,100.00
2023-04-09T02:30:04.562Z,100.00
2023-04-09T02:32:31.064Z,100.00
2023-04-09T02:34:58.952Z,100.00
2023-04-09T02:37:25.621Z,100.00
2023-04-09T02:39:52.129Z,100.00
2023-04-09T02:42:18.689Z,100.00
2023-04-09T02:44:45.230Z,100.00
2023-04-09T02:47:11.710Z,100.00
2023-04-09T02:49:38.214Z,100.00
2023-04-09T02:52:06.106Z,100.00
2023-04-09T02:54:32.588Z,100.00
2023-04-09T02:56:59.077Z,100.00
2023-04-09T02:59:25.594Z,100.00
2023-04-09T03:01:52.140Z,100.00
2023-04-09T03:04:18.826Z,100.00
2023-04-09T03:06:45.380Z,100.00
2023-04-09T03:09:13.166Z,100.00
2023-04-09T03:11:39.639Z,100.00
2023-04-09T03:14:06.147Z,100.00
2023-04-09T03:16:32.646Z,100.00
2023-04-09T03:18:59.147Z,100.00
2023-04-09T03:21:25.610Z,100.00
2023-04-09T03:23:52.116Z,100.00
2023-04-09T03:26:19.960Z,100.00
2023-04-09T03:28:46.466Z,100.00
2023-04-09T03:31:12.939Z,100.00
2023-04-09T03:33:39.439Z,100.00
2023-04-09T03:36:06.239Z,100.00
2023-04-09T03:38:32.742Z,100.00
2023-04-09T03:40:59.233Z,100.00
2023-04-09T03:43:27.064Z,100.00
2023-04-09T03:45:53.582Z,100.00
2023-04-09T03:48:20.068Z,100.00
2023-04-09T03:50:46.538Z,100.00
2023-04-09T03:53:13.041Z,100.00
2023-04-09T03:55:39.566Z,100.00
2023-04-09T03:58:06.095Z,100.00
2023-04-09T04:00:33.914Z,100.00
2023-04-09T04:03:00.590Z,100.00
2023-04-09T04:05:27.276Z,100.00
2023-04-09T04:07:53.768Z,100.00
2023-04-09T04:10:20.603Z,100.00
2023-04-09T04:12:47.198Z,100.00
2023-04-09T04:15:13.849Z,100.00
2023-04-09T04:17:41.725Z,100.00
2023-04-09T04:20:10.052Z,100.00
2023-04-09T04:22:36.613Z,100.00
2023-04-09T04:25:03.808Z,100.00
2023-04-09T04:27:30.293Z,100.00
2023-04-09T04:29:57.350Z,100.00
2023-04-09T04:32:23.935Z,100.00
2023-04-09T04:34:51.755Z,100.00
2023-04-09T04:37:18.294Z,100.00
2023-04-09T04:39:44.774Z,100.00
2023-04-09T04:42:11.279Z,100.00
2023-04-09T04:44:37.761Z,100.00
2023-04-09T04:47:04.249Z,100.00
2023-04-09T04:49:30.794Z,100.00
2023-04-09T04:51:58.615Z,100.00
2023-04-09T04:54:25.118Z,100.00
2023-04-09T04:56:51.897Z,100.00
2023-04-09T04:59:18.484Z,100.00
2023-04-09T05:01:44.992Z,100.00
2023-04-09T05:04:11.515Z,100.00
2023-04-09T05:06:38.051Z,100.00
2023-04-09T05:09:05.856Z,100.00
2023-04-09T05:11:32.356Z,100.00
2023-04-09T05:13:58.818Z,100.00
2023-04-09T05:16:25.289Z,100.00
2023-04-09T05:18:52.087Z,100.00
2023-04-09T05:21:18.818Z,100.00
2023-04-09T05:23:45.290Z,100.00
2023-04-09T05:26:13.244Z,100.00
2023-04-09T05:28:39.816Z,100.00
2023-04-09T05:31:06.394Z,100.00
2023-04-09T05:33:32.961Z,100.00
2023-04-09T05:35:59.571Z,100.00
2023-04-09T05:38:26.042Z,100.00
2023-04-09T05:40:52.511Z,100.00
2023-04-09T05:43:20.351Z,100.00
2023-04-09T05:45:46.848Z,100.00
2023-04-09T05:48:13.339Z,100.00
2023-04-09T05:50:53.427Z,100.00
2023-04-09T05:53:21.137Z,100.00
2023-04-09T05:55:47.694Z,100.00
2023-04-09T05:58:14.136Z,100.00
2023-04-09T06:00:42.070Z,100.00
2023-04-09T06:03:09.169Z,100.00
2023-04-09T06:05:35.892Z,100.00
2023-04-09T06:08:02.392Z,100.00
2023-04-09T06:10:29.140Z,100.00
2023-04-09T06:12:55.666Z,100.00
2023-04-09T06:15:22.175Z,100.00
2023-04-09T06:17:50.048Z,100.00
2023-04-09T06:20:16.678Z,100.00
2023-04-09T06:22:43.173Z,100.00
2023-04-09T06:25:09.850Z,100.00
2023-04-09T06:27:36.369Z,100.00
2023-04-09T06:30:02.921Z,100.00
2023-04-09T06:32:29.753Z,100.00
2023-04-09T06:34:58.484Z,100.00
2023-04-09T06:37:24.952Z,100.00
2023-04-09T06:40:00.470Z,100.00
2023-04-09T06:42:28.024Z,100.00
2023-04-09T06:44:54.744Z,100.00
2023-04-09T06:47:21.211Z,100.00
2023-04-09T06:49:47.687Z,100.00
2023-04-09T06:52:15.542Z,100.00
2023-04-09T06:54:42.064Z,100.00
2023-04-09T06:57:08.707Z,100.00
2023-04-09T06:59:35.212Z,100.00
2023-04-09T07:02:01.790Z,100.00
2023-04-09T07:04:28.506Z,100.00
2023-04-09T07:06:55.085Z,100.00
2023-04-09T07:09:22.893Z,100.00
2023-04-09T07:11:49.348Z,100.00
2023-04-09T07:14:15.831Z,100.00
2023-04-09T07:16:42.304Z,100.00
2023-04-09T07:19:08.791Z,100.00
2023-04-09T07:21:35.291Z,100.00
2023-04-09T07:24:01.751Z,100.00
2023-04-09T07:26:29.677Z,100.00
2023-04-09T07:28:56.176Z,100.00
2023-04-09T07:31:22.783Z,100.00
2023-04-09T07:33:49.338Z,100.00
2023-04-09T07:36:15.851Z,100.00
2023-04-09T07:38:42.423Z,100.00
2023-04-09T07:41:10.591Z,100.00
2023-04-09T07:43:38.437Z,100.00
2023-04-09T07:46:05.022Z,100.00
2023-04-09T07:48:31.466Z,100.00
2023-04-09T07:50:57.988Z,100.00
2023-04-09T07:53:24.939Z,100.00
2023-04-09T07:55:51.649Z,100.00
2023-04-09T07:58:18.155Z,100.00
2023-04-09T08:00:46.030Z,100.00
2023-04-09T08:03:12.705Z,100.00
2023-04-09T08:05:39.305Z,100.00
2023-04-09T08:08:06.094Z,100.00
2023-04-09T08:10:32.605Z,100.00
2023-04-09T08:12:59.098Z,100.00
2023-04-09T08:15:25.594Z,100.00
2023-04-09T08:17:53.426Z,100.00
2023-04-09T08:20:20.130Z,100.00
2023-04-09T08:22:46.671Z,100.00
2023-04-09T08:25:13.257Z,100.00
2023-04-09T08:27:39.833Z,100.00
2023-04-09T08:30:07.544Z,100.00
2023-04-09T08:32:34.055Z,100.00
2023-04-09T08:35:01.906Z,100.00
2023-04-09T08:37:28.438Z,100.00
2023-04-09T08:39:54.928Z,100.00
2023-04-09T08:42:21.805Z,100.00
2023-04-09T08:44:48.293Z,100.00
2023-04-09T08:47:15.147Z,100.00
2023-04-09T08:49:41.697Z,100.00
2023-04-09T08:52:09.826Z,100.00
2023-04-09T08:54:36.300Z,100.00
2023-04-09T08:57:05.144Z,100.00
2023-04-09T08:59:31.671Z,100.00
2023-04-09T09:02:16.171Z,100.00
2023-04-09T09:04:46.782Z,100.00
2023-04-09T09:07:15.615Z,100.00
2023-04-09T09:09:52.210Z,100.00
2023-04-09T09:12:31.208Z,100.00
2023-04-09T09:14:57.770Z,100.00
2023-04-09T09:17:24.430Z,100.00
2023-04-09T09:19:51.004Z,100.00
2023-04-09T09:22:18.848Z,100.00
2023-04-09T09:24:48.285Z,100.00
2023-04-09T09:27:30.855Z,100.00
2023-04-09T09:29:57.410Z,100.00
2023-04-09T09:32:24.166Z,100.00
2023-04-09T09:34:58.663Z,100.00
2023-04-09T09:37:30.279Z,100.00
2023-04-09T09:39:57.436Z,100.00
2023-04-09T09:42:24.126Z,100.00
2023-04-09T09:44:50.716Z,100.00
2023-04-09T09:47:18.333Z,100.00
2023-04-09T09:49:44.831Z,100.00
2023-04-09T09:52:11.853Z,100.00
2023-04-09T09:54:41.577Z,100.00
2023-04-09T09:57:09.980Z,100.00
2023-04-09T09:59:38.090Z,100.00
2023-04-09T10:02:06.135Z,100.00
2023-04-09T10:04:34.812Z,100.00
2023-04-09T10:07:04.295Z,100.00
2023-04-09T10:09:31.076Z,100.00
2023-04-09T10:12:00.472Z,100.00
2023-04-09T10:14:28.281Z,100.00
2023-04-09T10:16:54.911Z,100.00
2023-04-09T10:19:21.787Z,100.00
2023-04-09T10:21:53.865Z,100.00
2023-04-09T10:24:21.784Z,100.00
2023-04-09T10:26:48.438Z,100.00
2023-04-09T10:29:16.888Z,100.00
2023-04-09T10:31:52.865Z,100.00
2023-04-09T10:34:22.250Z,100.00
2023-04-09T10:36:51.783Z,100.00
2023-04-09T10:39:18.569Z,100.00
2023-04-09T10:41:46.859Z,100.00
2023-04-09T10:44:25.528Z,100.00
2023-04-09T10:46:53.877Z,100.00
2023-04-09T10:49:21.505Z,100.00
2023-04-09T10:51:50.550Z,100.00
2023-04-09T10:54:42.607Z,100.00
2023-04-09T10:57:17.716Z,100.00
2023-04-09T10:59:47.345Z,100.00
2023-04-09T11:02:57.471Z,100.00
2023-04-09T11:05:32.725Z,100.00
2023-04-09T11:08:05.078Z,100.00
2023-04-09T11:10:31.894Z,100.00
2023-04-09T11:12:58.460Z,100.00
2023-04-09T11:15:26.308Z,100.00
2023-04-09T11:17:53.265Z,100.00
2023-04-09T11:20:21.706Z,100.00
2023-04-09T11:22:49.362Z,100.00
2023-04-09T11:25:23.260Z,100.00
2023-04-09T11:27:50.391Z,100.00
2023-04-09T11:30:17.183Z,100.00
2023-04-09T11:32:45.402Z,100.00
2023-04-09T11:35:13.003Z,100.00
2023-04-09T11:37:40.097Z,100.00
2023-04-09T11:40:08.059Z,100.00
2023-04-09T11:42:34.874Z,100.00
2023-04-09T11:45:01.633Z,100.00
2023-04-09T11:47:28.301Z,100.00
2023-04-09T11:49:56.260Z,100.00
2023-04-09T11:52:22.859Z,100.00
2023-04-09T11:54:49.405Z,100.00
2023-04-09T11:57:17.476Z,100.00
2023-04-09T11:59:44.160Z,100.00
2023-04-09T12:02:10.882Z,100.00
2023-04-09T12:04:37.626Z,100.00
2023-04-09T12:07:08.153Z,100.00
2023-04-09T12:09:45.875Z,100.00
2023-04-09T12:12:17.680Z,100.00
2023-04-09T12:14:45.827Z,100.00
2023-04-09T12:17:12.393Z,100.00
2023-04-09T12:19:38.896Z,100.00
2023-04-09T12:22:06.719Z,100.00
2023-04-09T12:24:33.234Z,100.00
2023-04-09T12:26:59.687Z,100.00
2023-04-09T12:29:26.176Z,100.00
2023-04-09T12:31:52.853Z,100.00
2023-04-09T12:34:19.485Z,100.00
2023-04-09T12:36:46.075Z,100.00
2023-04-09T12:39:13.880Z,100.00
2023-04-09T12:41:40.396Z,100.00
2023-04-09T12:44:06.895Z,100.00
2023-04-09T12:46:33.441Z,100.00
2023-04-09T12:48:59.964Z,100.00
2023-04-09T12:51:26.498Z,100.00
2023-04-09T12:53:53.258Z,100.00
2023-04-09T12:56:21.219Z,100.00
2023-04-09T12:58:47.731Z,100.00
2023-04-09T13:01:14.342Z,100.00
2023-04-09T13:03:41.140Z,100.00
2023-04-09T13:06:07.987Z,100.00
2023-04-09T13:08:34.525Z,100.00
2023-04-09T13:11:01.035Z,100.00
2023-04-09T13:13:28.874Z,100.00
2023-04-09T13:15:55.416Z,100.00
2023-04-09T13:18:22.001Z,100.00
2023-04-09T13:20:48.503Z,100.00
2023-04-09T13:23:14.983Z,100.00
2023-04-09T13:25:41.557Z,100.00
2023-04-09T13:28:08.052Z,100.00
2023-04-09T13:30:36.109Z,100.00
2023-04-09T13:33:02.692Z,100.00
2023-04-09T13:35:30.522Z,100.00
2023-04-09T13:37:57.093Z,100.00
2023-04-09T13:40:23.743Z,100.00
2023-04-09T13:42:50.275Z,100.00
2023-04-09T13:45:16.802Z,100.00
2023-04-09T13:47:44.664Z,100.00
2023-04-09T13:50:11.388Z,100.00
2023-04-09T13:52:37.904Z,100.00
2023-04-09T13:55:05.456Z,100.00
2023-04-09T13:57:31.924Z,100.00
2023-04-09T13:59:58.412Z,100.00
2023-04-09T14:02:25.009Z,100.00
2023-04-09T14:04:53.098Z,100.00
2023-04-09T14:07:19.616Z,100.00
2023-04-09T14:09:46.077Z,100.00
2023-04-09T14:12:12.587Z,100.00
2023-04-09T14:14:39.152Z,100.00
2023-04-09T14:17:05.693Z,100.00
2023-04-09T14:19:32.207Z,100.00
2023-04-09T14:22:00.069Z,100.00
2023-04-09T14:24:26.632Z,100.00
2023-04-09T14:26:53.320Z,100.00
2023-04-09T14:29:20.141Z,100.00
2023-04-09T14:31:46.688Z,100.00
2023-04-09T14:34:13.360Z,100.00
2023-04-09T14:36:39.891Z,100.00
2023-04-09T14:39:07.821Z,100.00
2023-04-09T14:41:34.380Z,100.00
2023-04-09T14:44:01.005Z,100.00
2023-04-09T14:46:27.610Z,100.00
2023-04-09T14:48:54.359Z,100.00
2023-04-09T14:51:21.068Z,100.00
2023-04-09T14:53:47.574Z,100.00
2023-04-09T14:56:15.449Z,100.00
2023-04-09T14:58:41.956Z,100.00
2023-04-09T15:01:08.471Z,100.00
2023-04-09T15:03:35.186Z,100.00
2023-04-09T15:06:01.894Z,100.00
2023-04-09T15:08:28.513Z,100.00
2023-04-09T15:10:54.981Z,100.00
2023-04-09T15:13:22.795Z,100.00
2023-04-09T15:15:49.395Z,100.00
2023-04-09T15:18:15.969Z,100.00
2023-04-09T15:20:42.607Z,100.00
2023-04-09T15:23:09.420Z,100.00
2023-04-09T15:25:35.977Z,100.00
2023-04-09T15:28:03.189Z,100.00
2023-04-09T15:30:31.102Z,100.00
2023-04-09T15:32:57.699Z,100.00
2023-04-09T15:35:24.253Z,100.00
2023-04-09T15:37:50.840Z,100.00
2023-04-09T15:40:17.698Z,100.00
2023-04-09T15:42:44.442Z,100.00
2023-04-09T15:45:11.691Z,100.00
2023-04-09T15:47:39.515Z,100.00
2023-04-09T15:50:07.340Z,100.00
2023-04-09T15:52:33.850Z,100.00
2023-04-09T15:55:00.323Z,100.00
2023-04-09T15:57:26.814Z,100.00
2023-04-09T15:59:53.344Z,100.00
2023-04-09T16:02:19.965Z,96.62
2023-04-09T16:04:49.092Z,98.51
2023-04-09T16:07:15.715Z,98.40
2023-04-09T16:09:42.235Z,99.46
2023-04-09T16:12:08.813Z,99.99
2023-04-09T16:14:35.342Z,100.00
2023-04-09T16:17:01.942Z,95.69
2023-04-09T16:19:28.471Z,94.65
2023-04-09T16:21:56.380Z,92.89
2023-04-09T16:24:23.010Z,93.26
2023-04-09T16:26:49.470Z,92.51
2023-04-09T16:29:15.982Z,92.90
2023-04-09T16:31:42.462Z,93.68
2023-04-09T16:34:09.066Z,94.71
2023-04-09T16:36:35.573Z,94.89
2023-04-09T16:39:03.495Z,95.02
2023-04-09T16:41:30.049Z,95.91
2023-04-09T16:43:56.560Z,98.07
2023-04-09T16:46:23.138Z,99.04
2023-04-09T16:48:49.741Z,99.32
2023-04-09T16:51:16.552Z,100.00
2023-04-09T16:53:43.047Z,100.00
2023-04-09T16:56:10.922Z,100.00
2023-04-09T16:58:37.407Z,100.00
2023-04-09T17:01:04.305Z,100.00
2023-04-09T17:03:30.929Z,100.00
2023-04-09T17:05:57.439Z,100.00
2023-04-09T17:08:23.934Z,100.00
2023-04-09T17:10:50.461Z,100.00
2023-04-09T17:13:18.304Z,100.00
2023-04-09T17:15:44.759Z,100.00
2023-04-09T17:18:11.247Z,100.00
2023-04-09T17:20:37.739Z,100.00
2023-04-09T17:23:04.314Z,100.00
2023-04-09T17:25:30.820Z,100.00
2023-04-09T17:27:57.342Z,100.00
2023-04-09T17:30:25.180Z,100.00
2023-04-09T17:32:51.682Z,100.00
2023-04-09T17:35:18.248Z,100.00
2023-04-09T17:37:44.805Z,100.00
2023-04-09T17:40:11.877Z,100.00
2023-04-09T17:42:38.772Z,100.00
2023-04-09T17:45:06.325Z,100.00
2023-04-09T17:47:34.202Z,100.00
2023-04-09T17:50:00.710Z,100.00
2023-04-09T17:52:27.207Z,100.00
2023-04-09T17:54:53.827Z,100.00
2023-04-09T17:57:20.331Z,100.00
2023-04-09T17:59:46.815Z,100.00
2023-04-09T18:02:13.485Z,100.00
2023-04-09T18:04:41.632Z,100.00
2023-04-09T18:07:08.283Z,100.00
2023-04-09T18:09:34.852Z,100.00
2023-04-09T18:12:01.402Z,100.00
2023-04-09T18:14:28.126Z,100.00
2023-04-09T18:16:54.697Z,100.00
2023-04-09T18:19:21.195Z,100.00
2023-04-09T18:21:49.036Z,100.00
2023-04-09T18:24:15.696Z,100.00
2023-04-09T18:26:42.234Z,100.00
2023-04-09T18:29:08.765Z,100.00
2023-04-09T18:31:35.357Z,100.00
2023-04-09T18:34:01.923Z,100.00
2023-04-09T18:36:28.536Z,100.00
2023-04-09T18:38:56.750Z,100.00
2023-04-09T18:41:23.681Z,100.00
2023-04-09T18:43:50.261Z,100.00
2023-04-09T18:46:16.787Z,100.00
2023-04-09T18:48:43.394Z,100.00
2023-04-09T18:51:09.986Z,100.00
2023-04-09T18:53:36.547Z,100.00
2023-04-09T18:56:04.892Z,100.00
2023-04-09T18:58:31.383Z,100.00
2023-04-09T19:00:57.901Z,100.00
2023-04-09T19:03:24.649Z,100.00
2023-04-09T19:05:51.807Z,100.00
2023-04-09T19:08:18.334Z,100.00
2023-04-09T19:10:44.912Z,100.00
2023-04-09T19:13:12.859Z,100.00
2023-04-09T19:15:39.303Z,100.00
2023-04-09T19:18:05.843Z,100.00
2023-04-09T19:20:33.466Z,100.00
2023-04-09T19:22:59.974Z,100.00
2023-04-09T19:25:26.481Z,100.00
2023-04-09T19:27:53.221Z,100.00
2023-04-09T19:30:21.074Z,100.00
2023-04-09T19:32:47.620Z,100.00
2023-04-09T19:35:14.126Z,100.00
2023-04-09T19:37:40.756Z,100.00
2023-04-09T19:40:08.627Z,100.00
2023-04-09T19:42:35.164Z,100.00
2023-04-09T19:45:01.945Z,100.00
2023-04-09T19:47:29.849Z,100.00
2023-04-09T19:49:56.369Z,100.00
2023-04-09T19:52:22.893Z,100.00
2023-04-09T19:54:53.591Z,100.00
2023-04-09T19:57:20.099Z,100.00
2023-04-09T19:59:48.495Z,100.00
2023-04-09T20:02:16.309Z,100.00
2023-04-09T20:04:44.206Z,100.00
2023-04-09T20:07:10.758Z,100.00
2023-04-09T20:09:37.256Z,100.00
2023-04-09T20:12:03.961Z,100.00
2023-04-09T20:14:30.981Z,100.00
2023-04-09T20:16:57.615Z,100.00
2023-04-09T20:19:24.260Z,100.00
2023-04-09T20:21:52.213Z,100.00
2023-04-09T20:24:18.756Z,100.00
2023-04-09T20:26:45.222Z,100.00
2023-04-09T20:29:12.601Z,100.00
2023-04-09T20:31:39.173Z,100.00
2023-04-09T20:34:05.729Z,100.00
2023-04-09T20:36:32.262Z,100.00
2023-04-09T20:39:00.105Z,100.00
2023-04-09T20:41:26.648Z,100.00
2023-04-09T20:43:53.137Z,100.00
2023-04-09T20:46:19.757Z,100.00
2023-04-09T20:48:46.335Z,100.00
2023-04-09T20:51:13.673Z,100.00
2023-04-09T20:53:40.222Z,100.00
2023-04-09T20:56:08.236Z,100.00
2023-04-09T20:58:34.773Z,100.00
2023-04-09T21:01:04.710Z,100.00
2023-04-09T21:03:31.388Z,100.00
2023-04-09T21:05:58.074Z,100.00
2023-04-09T21:08:24.579Z,100.00
2023-04-09T21:10:51.091Z,100.00
2023-04-09T21:13:18.936Z,100.00
2023-04-09T21:15:45.420Z,100.00
2023-04-09T21:18:12.210Z,100.00
2023-04-09T21:20:42.799Z,100.00
2023-04-09T21:23:09.332Z,100.00
2023-04-09T21:25:35.861Z,100.00
2023-04-09T21:28:02.389Z,100.00
2023-04-09T21:30:30.178Z,100.00
2023-04-09T21:32:56.839Z,100.00
2023-04-09T21:35:23.404Z,100.00
2023-04-09T21:37:49.993Z,100.00
2023-04-09T21:40:17.856Z,100.00
2023-04-09T21:42:44.465Z,100.00
2023-04-09T21:45:11.517Z,100.00
2023-04-09T21:47:39.399Z,100.00
2023-04-09T21:50:07.018Z,100.00
2023-04-09T21:52:33.522Z,100.00
2023-04-09T21:55:00.123Z,100.00
2023-04-09T21:57:26.741Z,100.00
2023-04-09T21:59:53.233Z,100.00
2023-04-09T22:02:19.853Z,100.00
2023-04-09T22:04:47.896Z,100.00
2023-04-09T22:07:14.432Z,100.00
2023-04-09T22:09:40.900Z,100.00
2023-04-09T22:12:07.619Z,100.00
2023-04-09T22:14:34.095Z,100.00
2023-04-09T22:17:00.676Z,100.00
2023-04-09T22:19:27.865Z,100.00
2023-04-09T22:21:55.952Z,100.00
2023-04-09T22:24:22.668Z,100.00
2023-04-09T22:26:49.300Z,100.00
2023-04-09T22:29:15.832Z,100.00
2023-04-09T22:31:42.386Z,100.00
2023-04-09T22:34:20.197Z,100.00
2023-04-09T22:36:48.131Z,100.00
2023-04-09T22:39:16.049Z,100.00
2023-04-09T22:41:42.594Z,100.00
2023-04-09T22:44:09.137Z,100.00
2023-04-09T22:46:35.744Z,100.00
2023-04-09T22:49:04.860Z,100.00
2023-04-09T22:51:32.382Z,100.00
2023-04-09T22:53:58.862Z,100.00
2023-04-09T22:56:26.668Z,100.00
2023-04-09T22:58:53.363Z,100.00
2023-04-09T23:01:20.153Z,100.00
2023-04-09T23:03:46.706Z,100.00
2023-04-09T23:06:13.186Z,100.00
2023-04-09T23:08:40.813Z,100.00
2023-04-09T23:11:07.514Z,100.00
2023-04-09T23:13:35.387Z,100.00
2023-04-09T23:16:04.440Z,100.00
2023-04-09T23:18:30.935Z,100.00
2023-04-09T23:20:57.442Z,100.00
2023-04-09T23:23:23.963Z,100.00
2023-04-09T23:25:50.458Z,100.00
2023-04-09T23:28:16.922Z,100.00
2023-04-09T23:30:45.298Z,100.00
2023-04-09T23:33:11.835Z,100.00
2023-04-09T23:35:39.323Z,100.00
2023-04-09T23:38:05.885Z,100.00
2023-04-09T23:40:32.450Z,100.00
2023-04-09T23:42:59.049Z,100.00
2023-04-09T23:45:25.599Z,100.00
2023-04-09T23:47:53.615Z,100.00
2023-04-09T23:50:20.343Z,100.00
2023-04-09T23:52:48.627Z,100.00
2023-04-09T23:55:15.328Z,100.00
2023-04-09T23:57:41.968Z,100.00
